Altoona Blair County Airport
KAOO : now visible

Airfield :











YOU CAN JOIN US ON...

 
LOGIN :

Register | Disclaimer

   EN    FR    IT 

 









Legend :    VFR   Marginal VFR   IFR   Intensive IFR   Very Intensive IFR
Visi :
Ceiling :
>= 8 km
>= 3000ft
5 to 8 km
1000 to 3000 ft
1500m to 5 km
500 to 1000 ft
800 to 1500m
200 to 500 ft
< 800m
< 200 ft
Symbols :   Thunderstorms  Fog  Heavy snow  Heavy precipitations  Wind > 20 kt






- Airport Elevation : 1503 ft
- IATA code : AOO


KAOO - Altoona Blair County

CURRENT METAR :
  • 061208Z AUTO 29008KT 8SM SCT019 23/19 A2992 RMK AO2 T02280189

EXPIRED METARs :
  • 061153Z AUTO 23004KT 7SM BKN019 22/19 A2992 RMK AO2 SLP121 70011 T02220189 10222 20178 50005
  • 061149Z AUTO 23005KT 7SM BKN019 22/19 A2992 RMK AO2
  • 061128Z AUTO 21004KT 6SM BR SCT020 21/19 A2991 RMK AO2 T02110189
  • 061053Z AUTO 20004KT 6SM BR BKN020 21/18 A2991 RMK AO2 SLP119 T02060183
  • 061002Z AUTO 19006KT 6SM BR BKN020 19/18 A2990 RMK AO2 T01940178
  • 060953Z AUTO 20008KT 5SM BR SCT020 19/18 A2990 RMK AO2 SLP116 T01940178

TAF KAOO
Valid from the 06 at 12:00 until the 07 at 12:00 UTC


061120Z 0612/0712 23005KT P6SM BKN025
FM061400 26008KT P6SM BKN045
FM061600 29012G22KT P6SM SCT060
FM070000 34004KT P6SM FEW070
KZOB FIR / North America



MET'MAP, your aeronautical weather chart ! - Copyright ORBIFLY December 2007 - Disclaimer

ORBIFLY MET'MAP TEAM :

Programming & Development : Alexandra Zaïnal
Concept & original design : Baudouin d'Aumeries
Assistance for programming : Marc-Olivier Méhu
Technical & hardware support : Manuel Goepfert

Contact : metmap@orbifly.com




SOURCES & CREDITS :

   NOAA       Earth
Advisory